createdAt,value
2022-10-07T00:02:26.146Z,61.96
2022-10-07T00:04:57.060Z,61.09
2022-10-07T00:07:28.266Z,60.95
2022-10-07T00:09:58.989Z,60.96
2022-10-07T00:12:30.238Z,61.21
2022-10-07T00:15:01.180Z,60.86
2022-10-07T00:17:32.930Z,60.56
2022-10-07T00:20:03.867Z,60.42
2022-10-07T00:22:34.512Z,60.08
2022-10-07T00:25:05.550Z,60.16
2022-10-07T00:27:37.163Z,59.91
2022-10-07T00:30:08.865Z,60.13
2022-10-07T00:32:39.483Z,58.60
2022-10-07T00:35:10.744Z,60.02
2022-10-07T00:37:43.553Z,64.39
2022-10-07T00:40:14.945Z,64.58
2022-10-07T00:42:45.348Z,62.59
2022-10-07T00:45:17.391Z,61.21
2022-10-07T00:47:50.219Z,60.32
2022-10-07T00:50:23.119Z,59.77
2022-10-07T00:52:55.077Z,58.29
2022-10-07T00:55:27.083Z,60.03
2022-10-07T00:58:00.013Z,64.68
2022-10-07T01:00:31.785Z,65.06
2022-10-07T01:03:03.115Z,62.89
2022-10-07T01:05:36.203Z,61.14
2022-10-07T01:08:07.015Z,60.73
2022-10-07T01:10:41.158Z,60.74
2022-10-07T01:13:15.268Z,60.75
2022-10-07T01:15:52.551Z,60.85
2022-10-07T01:18:26.662Z,60.82
2022-10-07T01:34:47.257Z,58.54
2022-10-07T01:37:17.500Z,61.19
2022-10-07T01:39:52.109Z,64.75
2022-10-07T01:42:23.033Z,64.82
2022-10-07T01:44:55.501Z,62.79
2022-10-07T01:47:26.653Z,62.51
2022-10-07T01:49:57.488Z,61.64
2022-10-07T01:52:36.111Z,60.88
2022-10-07T01:55:15.668Z,60.65
2022-10-07T01:57:50.694Z,60.38
2022-10-07T02:00:21.957Z,59.95
2022-10-07T02:03:15.218Z,58.50
2022-10-07T02:05:48.790Z,59.11
2022-10-07T02:08:24.721Z,64.31
2022-10-07T02:11:03.223Z,65.47
2022-10-07T02:13:37.535Z,62.66
2022-10-07T02:16:11.142Z,61.49
2022-10-07T02:18:44.193Z,61.33
2022-10-07T02:21:15.215Z,60.84
2022-10-07T02:23:46.696Z,60.21
2022-10-07T02:26:20.863Z,59.84
2022-10-07T02:28:53.850Z,58.09
2022-10-07T02:31:26.724Z,58.58
2022-10-07T02:33:58.795Z,60.29
2022-10-07T02:36:31.064Z,66.52
2022-10-07T02:39:02.214Z,65.77
2022-10-07T02:41:36.033Z,63.89
2022-10-07T02:44:14.902Z,63.37
2022-10-07T02:46:46.814Z,62.41
2022-10-07T02:49:19.216Z,61.66
2022-10-07T02:51:51.700Z,60.86
2022-10-07T02:54:25.997Z,60.22
2022-10-07T02:56:56.933Z,59.67
2022-10-07T02:59:28.967Z,57.98
2022-10-07T03:02:00.912Z,59.25
2022-10-07T03:04:32.352Z,61.21
2022-10-07T03:07:04.213Z,65.82
2022-10-07T03:09:35.554Z,66.36
2022-10-07T03:12:06.238Z,64.60
2022-10-07T03:14:37.662Z,62.75
2022-10-07T03:17:10.854Z,61.89
2022-10-07T03:19:41.792Z,61.43
2022-10-07T03:22:12.664Z,60.98
2022-10-07T03:24:44.081Z,60.53
2022-10-07T03:27:14.734Z,60.22
2022-10-07T03:29:45.654Z,59.76
2022-10-07T03:32:16.684Z,58.55
2022-10-07T03:34:47.524Z,59.68
2022-10-07T03:37:18.385Z,60.61
2022-10-07T03:39:49.107Z,66.48
2022-10-07T03:42:19.850Z,66.13
2022-10-07T03:44:50.867Z,62.66
2022-10-07T03:47:22.656Z,61.40
2022-10-07T03:49:53.413Z,61.04
2022-10-07T03:52:24.199Z,60.72
2022-10-07T03:54:56.976Z,60.99
2022-10-07T03:57:45.699Z,60.86
2022-10-07T04:00:17.277Z,60.30
2022-10-07T04:02:50.233Z,59.80
2022-10-07T04:05:22.085Z,58.31
2022-10-07T04:07:54.868Z,59.26
2022-10-07T04:10:26.069Z,60.65
2022-10-07T04:12:57.290Z,66.37
2022-10-07T04:15:28.238Z,66.49
2022-10-07T04:18:00.122Z,64.16
2022-10-07T04:20:31.237Z,61.99
2022-10-07T04:23:02.541Z,61.17
2022-10-07T04:25:38.945Z,60.34
2022-10-07T04:28:18.733Z,59.90
2022-10-07T04:30:51.707Z,58.35
2022-10-07T04:33:25.792Z,58.13
2022-10-07T04:35:58.087Z,60.92
2022-10-07T04:38:29.006Z,65.62
2022-10-07T04:41:04.318Z,66.48
2022-10-07T04:43:35.961Z,64.19
2022-10-07T04:46:10.979Z,62.33
2022-10-07T04:48:46.000Z,61.66
2022-10-07T04:51:18.480Z,60.77
2022-10-07T04:53:56.798Z,60.05
2022-10-07T04:56:33.472Z,58.32
2022-10-07T04:59:05.957Z,59.40
2022-10-07T05:01:36.919Z,61.97
2022-10-07T05:04:07.656Z,66.41
2022-10-07T05:06:38.193Z,66.22
2022-10-07T05:09:09.690Z,63.24
2022-10-07T05:11:43.652Z,61.84
2022-10-07T05:14:21.691Z,60.75
2022-10-07T05:16:54.249Z,59.68
2022-10-07T05:19:27.562Z,58.15
2022-10-07T05:21:58.479Z,60.13
2022-10-07T05:24:29.804Z,64.72
2022-10-07T05:27:00.956Z,65.71
2022-10-07T05:29:32.121Z,63.43
2022-10-07T05:32:05.261Z,61.81
2022-10-07T05:34:36.744Z,60.50
2022-10-07T05:37:07.983Z,60.29
2022-10-07T05:39:38.629Z,60.31
2022-10-07T05:42:14.802Z,60.29
2022-10-07T05:44:51.051Z,60.00
2022-10-07T05:47:22.579Z,58.39
2022-10-07T05:49:55.253Z,59.07
2022-10-07T05:52:26.133Z,61.22
2022-10-07T05:54:57.980Z,66.80
2022-10-07T05:57:30.059Z,67.13
2022-10-07T06:00:04.879Z,65.08
2022-10-07T06:02:44.796Z,63.98
2022-10-07T06:05:16.246Z,62.78
2022-10-07T06:07:47.548Z,62.02
2022-10-07T06:10:36.766Z,61.34
2022-10-07T06:13:09.334Z,61.26
2022-10-07T06:15:42.153Z,60.83
2022-10-07T06:18:13.258Z,60.08
2022-10-07T06:20:44.206Z,59.99
2022-10-07T06:23:15.955Z,60.00
2022-10-07T06:25:52.807Z,59.64
2022-10-07T06:28:23.927Z,58.78
2022-10-07T06:30:54.850Z,60.87
2022-10-07T06:33:25.942Z,64.72
2022-10-07T06:36:02.221Z,65.03
2022-10-07T06:38:35.101Z,63.79
2022-10-07T06:41:07.321Z,62.30
2022-10-07T06:43:38.839Z,61.46
2022-10-07T06:46:13.507Z,61.22
2022-10-07T06:48:46.826Z,60.96
2022-10-07T06:51:20.573Z,60.31
2022-10-07T06:53:54.137Z,59.71
2022-10-07T06:56:26.047Z,58.41
2022-10-07T06:58:56.973Z,59.21
2022-10-07T07:01:35.443Z,62.98
2022-10-07T07:04:06.301Z,63.79
2022-10-07T07:06:38.863Z,62.35
2022-10-07T07:09:11.644Z,61.26
2022-10-07T07:11:45.608Z,60.76
2022-10-07T07:14:29.192Z,59.48
2022-10-07T07:17:07.276Z,61.13
2022-10-07T07:19:39.116Z,63.76
2022-10-07T07:22:10.008Z,62.68
2022-10-07T07:24:41.235Z,61.71
2022-10-07T07:27:14.631Z,60.95
2022-10-07T07:29:47.087Z,60.39
2022-10-07T07:32:18.150Z,59.75
2022-10-07T07:34:49.262Z,58.90
2022-10-07T07:37:25.492Z,62.13
2022-10-07T07:39:57.754Z,65.16
2022-10-07T07:42:28.979Z,63.92
2022-10-07T07:45:00.245Z,62.50
2022-10-07T07:47:31.142Z,61.41
2022-10-07T07:50:02.014Z,60.56
2022-10-07T07:52:34.661Z,59.79
2022-10-07T07:55:06.643Z,58.52
2022-10-07T07:57:38.095Z,60.07
2022-10-07T08:00:12.938Z,62.92
2022-10-07T08:02:50.887Z,63.87
2022-10-07T08:05:24.062Z,62.09
2022-10-07T08:07:56.276Z,60.15
2022-10-07T08:10:28.429Z,58.85
2022-10-07T08:12:59.071Z,60.69
2022-10-07T08:15:30.141Z,63.32
2022-10-07T08:18:01.771Z,63.81
2022-10-07T08:20:32.584Z,62.10
2022-10-07T08:23:04.046Z,60.41
2022-10-07T08:25:35.598Z,58.46
2022-10-07T08:28:07.089Z,59.60
2022-10-07T08:30:37.849Z,62.39
2022-10-07T08:33:08.390Z,62.56
2022-10-07T08:35:39.203Z,60.95
2022-10-07T08:38:14.305Z,60.15
2022-10-07T08:40:49.723Z,59.86
2022-10-07T08:43:22.330Z,58.59
2022-10-07T08:45:55.990Z,59.76
2022-10-07T08:48:30.597Z,62.28
2022-10-07T08:51:06.362Z,62.81
2022-10-07T08:53:38.348Z,60.93
2022-10-07T08:56:13.030Z,59.77
2022-10-07T08:58:49.147Z,57.29
2022-10-07T09:01:24.993Z,59.07
2022-10-07T09:03:59.512Z,61.22
2022-10-07T09:06:31.673Z,63.19
2022-10-07T09:09:04.642Z,62.23
2022-10-07T09:11:33.536Z,58.58
2022-10-07T09:14:11.769Z,57.76
2022-10-07T09:16:44.244Z,60.92
2022-10-07T09:19:18.660Z,63.03
2022-10-07T09:21:50.034Z,61.63
2022-10-07T09:24:23.261Z,59.36
2022-10-07T09:26:56.791Z,58.44
2022-10-07T09:29:28.028Z,60.20
2022-10-07T09:31:59.586Z,61.42
2022-10-07T09:34:31.060Z,63.17
2022-10-07T09:37:12.317Z,61.81
2022-10-07T09:39:43.531Z,59.10
2022-10-07T09:42:31.069Z,56.18
2022-10-07T09:45:03.248Z,58.71
2022-10-07T09:47:37.740Z,59.59
2022-10-07T09:50:30.108Z,62.29
2022-10-07T09:53:03.228Z,61.79
2022-10-07T09:55:39.638Z,60.08
2022-10-07T09:58:18.928Z,57.41
2022-10-07T10:00:50.158Z,57.12
2022-10-07T10:03:21.308Z,58.69
2022-10-07T10:05:57.691Z,60.19
2022-10-07T10:08:29.639Z,61.81
2022-10-07T10:11:01.831Z,62.55
2022-10-07T10:13:33.612Z,60.01
2022-10-07T10:16:05.602Z,57.26
2022-10-07T10:18:37.793Z,57.74
2022-10-07T10:21:25.517Z,59.13
2022-10-07T10:23:57.047Z,61.86
2022-10-07T10:26:42.106Z,63.16
2022-10-07T10:29:21.009Z,59.56
2022-10-07T10:32:05.639Z,57.51
2022-10-07T10:34:41.187Z,58.58
2022-10-07T10:37:14.790Z,59.04
2022-10-07T10:39:50.218Z,60.42
2022-10-07T10:42:27.268Z,60.45
2022-10-07T10:45:08.046Z,62.76
2022-10-07T10:47:45.780Z,60.90
2022-10-07T10:50:19.459Z,58.17
2022-10-07T10:52:55.220Z,58.25
2022-10-07T10:55:33.410Z,59.07
2022-10-07T10:58:10.072Z,59.85
2022-10-07T11:00:45.987Z,61.22
2022-10-07T11:03:32.337Z,61.50
2022-10-07T11:06:05.333Z,62.05
2022-10-07T11:08:38.621Z,60.60
2022-10-07T11:11:12.194Z,56.33
2022-10-07T11:13:47.037Z,57.52
2022-10-07T11:16:19.403Z,57.63
2022-10-07T11:18:51.473Z,59.07
2022-10-07T11:21:23.445Z,59.10
2022-10-07T11:23:57.725Z,60.55
2022-10-07T11:26:32.346Z,61.02
2022-10-07T11:29:14.203Z,61.34
2022-10-07T11:31:49.095Z,59.96
2022-10-07T11:34:21.253Z,60.27
2022-10-07T11:36:56.707Z,60.68
2022-10-07T11:39:27.502Z,61.48
2022-10-07T11:42:03.121Z,60.64
2022-10-07T11:44:37.746Z,60.94
2022-10-07T11:47:11.856Z,61.26
2022-10-07T11:49:44.227Z,60.01
2022-10-07T11:52:22.297Z,60.76
2022-10-07T11:54:59.405Z,61.07
2022-10-07T11:57:32.782Z,60.36
2022-10-07T12:00:06.384Z,60.88
2022-10-07T12:02:47.525Z,60.68
2022-10-07T12:05:34.822Z,59.84
2022-10-07T12:08:25.388Z,60.61
2022-10-07T12:10:56.743Z,60.45
2022-10-07T12:13:40.735Z,60.22
2022-10-07T12:16:28.846Z,60.11
2022-10-07T12:19:22.979Z,59.95
2022-10-07T12:22:11.631Z,59.44
2022-10-07T12:24:46.299Z,58.28
2022-10-07T12:27:18.043Z,58.96
2022-10-07T12:29:51.090Z,57.79
2022-10-07T12:32:38.842Z,58.41
2022-10-07T12:35:27.695Z,58.42
2022-10-07T12:38:14.460Z,57.94
2022-10-07T12:40:46.725Z,58.90
2022-10-07T12:43:23.736Z,58.48
2022-10-07T12:45:55.020Z,58.25
2022-10-07T12:48:28.218Z,57.68
2022-10-07T12:50:58.862Z,57.58
2022-10-07T12:53:33.560Z,57.78
2022-10-07T12:56:06.856Z,57.69
2022-10-07T12:59:05.678Z,58.39
2022-10-07T13:01:41.173Z,58.59
2022-10-07T13:04:26.560Z,57.42
2022-10-07T13:07:10.906Z,54.32
2022-10-07T13:09:54.956Z,49.42
2022-10-07T13:12:48.696Z,47.25
2022-10-07T13:15:35.778Z,48.34
2022-10-07T13:18:11.043Z,46.82
2022-10-07T13:20:47.811Z,44.57
2022-10-07T13:23:23.216Z,44.24
2022-10-07T13:25:59.052Z,43.46
2022-10-07T13:28:34.828Z,43.07
2022-10-07T13:31:15.397Z,42.54
2022-10-07T13:33:45.772Z,41.51
2022-10-07T13:36:18.351Z,41.53
2022-10-07T13:38:49.445Z,41.58
2022-10-07T13:41:28.148Z,40.87
2022-10-07T13:44:00.054Z,40.79
2022-10-07T13:46:31.902Z,41.13
2022-10-07T13:49:04.042Z,40.41
2022-10-07T13:51:36.120Z,39.34
2022-10-07T13:54:08.089Z,39.53
2022-10-07T13:56:41.531Z,40.50
2022-10-07T13:59:16.100Z,40.24
2022-10-07T14:01:48.748Z,40.84
2022-10-07T14:04:21.127Z,40.39
2022-10-07T14:06:53.894Z,39.69
2022-10-07T14:09:33.802Z,40.04
2022-10-07T14:12:06.448Z,39.55
2022-10-07T14:14:38.412Z,39.44
2022-10-07T14:17:18.639Z,39.62
2022-10-07T14:19:53.695Z,38.26
2022-10-07T14:22:28.319Z,39.55
2022-10-07T14:25:00.563Z,39.80
2022-10-07T14:27:42.110Z,40.12
2022-10-07T14:30:52.010Z,40.67
2022-10-07T14:33:45.602Z,40.70
2022-10-07T14:36:17.390Z,41.53
2022-10-07T14:38:48.841Z,41.70
2022-10-07T14:41:20.686Z,42.09
2022-10-07T14:43:53.061Z,42.75
2022-10-07T14:46:24.637Z,42.72
2022-10-07T14:48:55.825Z,42.98
2022-10-07T14:51:29.086Z,43.49
2022-10-07T14:54:03.287Z,44.06
2022-10-07T14:56:34.496Z,44.25
2022-10-07T14:59:05.160Z,44.86
2022-10-07T15:01:35.612Z,45.05
2022-10-07T15:04:07.177Z,45.22
2022-10-07T15:06:38.627Z,45.54
2022-10-07T15:09:10.863Z,45.72
2022-10-07T15:11:42.821Z,46.13
2022-10-07T15:14:13.524Z,46.86
2022-10-07T15:16:44.404Z,47.37
2022-10-07T15:19:15.558Z,47.78
2022-10-07T15:21:46.450Z,48.32
2022-10-07T15:24:17.225Z,48.79
2022-10-07T15:26:48.317Z,49.25
2022-10-07T15:29:19.738Z,49.69
2022-10-07T15:31:52.529Z,49.98
2022-10-07T15:34:22.983Z,50.37
2022-10-07T15:36:53.960Z,50.86
2022-10-07T15:39:24.634Z,51.90
2022-10-07T15:41:55.817Z,52.70
2022-10-07T15:44:27.439Z,53.46
2022-10-07T15:46:58.376Z,54.46
2022-10-07T15:49:29.169Z,55.05
2022-10-07T15:52:01.386Z,55.79
2022-10-07T15:54:33.150Z,56.72
2022-10-07T15:57:04.847Z,57.60
2022-10-07T15:59:35.882Z,58.12
2022-10-07T16:02:10.328Z,58.53
2022-10-07T16:04:45.838Z,59.37
2022-10-07T16:07:17.566Z,59.78
2022-10-07T16:09:48.137Z,60.36
2022-10-07T16:12:19.485Z,60.45
2022-10-07T16:14:50.468Z,60.74
2022-10-07T16:17:21.626Z,61.41
2022-10-07T16:19:52.119Z,61.85
2022-10-07T16:22:23.043Z,62.11
2022-10-07T16:24:55.848Z,64.06
2022-10-07T16:27:47.108Z,62.17
2022-10-07T16:30:35.789Z,58.95
2022-10-07T16:33:06.925Z,58.61
2022-10-07T16:35:37.198Z,59.73
2022-10-07T16:38:08.317Z,61.16
2022-10-07T16:40:38.826Z,62.58
2022-10-07T16:43:09.972Z,61.50
2022-10-07T16:45:41.699Z,58.70
2022-10-07T16:48:17.694Z,58.71
2022-10-07T16:50:49.361Z,60.36
2022-10-07T16:53:20.290Z,61.95
2022-10-07T16:55:50.897Z,63.81
2022-10-07T16:58:22.326Z,62.27
2022-10-07T17:00:52.811Z,60.37
2022-10-07T17:03:23.768Z,59.02
2022-10-07T17:05:57.837Z,60.04
2022-10-07T17:08:29.545Z,60.90
2022-10-07T17:11:01.859Z,63.87
2022-10-07T17:13:34.427Z,63.74
2022-10-07T17:16:06.053Z,62.75
2022-10-07T17:18:36.933Z,60.07
2022-10-07T17:21:07.954Z,58.83
2022-10-07T17:23:38.922Z,60.52
2022-10-07T17:26:09.956Z,61.37
2022-10-07T17:28:40.996Z,64.72
2022-10-07T17:31:12.794Z,65.33
2022-10-07T17:33:44.852Z,62.10
2022-10-07T17:36:15.464Z,59.34
2022-10-07T17:38:46.291Z,59.12
2022-10-07T17:41:17.633Z,59.61
2022-10-07T17:43:48.561Z,61.26
2022-10-07T17:46:20.464Z,65.96
2022-10-07T17:48:52.824Z,64.88
2022-10-07T17:51:24.342Z,61.73
2022-10-07T17:53:55.932Z,58.81
2022-10-07T17:56:27.055Z,58.98
2022-10-07T17:58:58.177Z,61.54
2022-10-07T18:01:29.308Z,64.78
2022-10-07T18:04:00.765Z,64.82
2022-10-07T18:06:32.452Z,62.35
2022-10-07T18:09:05.505Z,59.57
2022-10-07T18:11:54.082Z,59.04
2022-10-07T18:14:43.216Z,60.70
2022-10-07T18:17:13.657Z,65.14
2022-10-07T18:19:45.317Z,64.31
2022-10-07T18:22:15.605Z,62.09
2022-10-07T18:24:46.772Z,60.20
2022-10-07T18:27:17.534Z,58.15
2022-10-07T18:29:48.717Z,58.60
2022-10-07T18:32:19.884Z,60.36
2022-10-07T18:34:50.868Z,63.64
2022-10-07T18:37:21.356Z,64.52
2022-10-07T18:39:52.329Z,62.22
2022-10-07T18:42:22.775Z,60.74
2022-10-07T18:44:55.400Z,58.64
2022-10-07T18:47:26.029Z,59.18
2022-10-07T18:49:57.556Z,60.99
2022-10-07T18:52:28.013Z,65.33
2022-10-07T18:54:58.727Z,65.81
2022-10-07T18:57:29.397Z,63.29
2022-10-07T19:00:01.666Z,61.70
2022-10-07T19:02:32.478Z,60.86
2022-10-07T19:05:03.352Z,59.38
2022-10-07T19:07:33.839Z,59.67
2022-10-07T19:10:05.228Z,62.50
2022-10-07T19:12:58.758Z,66.40
2022-10-07T19:15:28.054Z,64.40
2022-10-07T19:17:58.994Z,62.38
2022-10-07T19:20:29.521Z,62.40
2022-10-07T19:23:00.289Z,61.77
2022-10-07T19:25:50.552Z,61.15
2022-10-07T19:28:21.917Z,60.61
2022-10-07T19:30:53.134Z,59.16
2022-10-07T19:33:25.327Z,60.43
2022-10-07T19:35:56.947Z,62.33
2022-10-07T19:38:27.690Z,66.62
2022-10-07T19:40:58.481Z,66.19
2022-10-07T19:43:29.704Z,63.98
2022-10-07T19:46:01.987Z,62.17
2022-10-07T19:48:32.861Z,61.53
2022-10-07T19:51:05.115Z,60.15
2022-10-07T19:53:36.083Z,59.00
2022-10-07T19:56:10.512Z,60.11
2022-10-07T19:58:46.665Z,64.54
2022-10-07T20:01:18.081Z,65.47
2022-10-07T20:03:49.059Z,63.59
2022-10-07T20:06:19.714Z,62.47
2022-10-07T20:08:50.719Z,61.83
2022-10-07T20:11:21.776Z,61.29
2022-10-07T20:13:54.378Z,60.71
2022-10-07T20:16:26.666Z,59.98
2022-10-07T20:19:01.240Z,58.44
2022-10-07T20:21:32.701Z,59.61
2022-10-07T20:24:04.243Z,61.83
2022-10-07T20:26:35.740Z,65.70
2022-10-07T20:29:07.468Z,65.85
2022-10-07T20:31:39.046Z,63.64
2022-10-07T20:34:12.127Z,62.22
2022-10-07T20:36:43.246Z,61.18
2022-10-07T20:39:34.543Z,60.48
2022-10-07T20:42:25.945Z,58.67
2022-10-07T20:44:57.655Z,59.36
2022-10-07T20:47:30.398Z,62.03
2022-10-07T20:50:02.837Z,65.65
2022-10-07T20:52:36.269Z,66.47
2022-10-07T20:55:09.647Z,64.52
2022-10-07T20:57:40.691Z,63.07
2022-10-07T21:00:16.508Z,62.30
2022-10-07T21:02:47.585Z,61.08
2022-10-07T21:05:18.529Z,60.72
2022-10-07T21:07:53.818Z,60.76
2022-10-07T21:10:25.513Z,60.54
2022-10-07T21:12:56.194Z,60.18
2022-10-07T21:15:26.747Z,59.96
2022-10-07T21:17:57.673Z,58.84
2022-10-07T21:20:28.149Z,60.42
2022-10-07T21:22:58.656Z,64.16
2022-10-07T21:25:29.303Z,65.11
2022-10-07T21:28:00.708Z,63.26
2022-10-07T21:30:33.024Z,61.89
2022-10-07T21:33:04.983Z,60.87
2022-10-07T21:35:35.625Z,60.05
2022-10-07T21:38:06.555Z,58.99
2022-10-07T21:40:37.052Z,60.06
2022-10-07T21:43:07.941Z,64.20
2022-10-07T21:45:39.171Z,64.93
2022-10-07T21:48:10.826Z,63.14
2022-10-07T21:50:42.177Z,61.74
2022-10-07T21:53:13.749Z,60.64
2022-10-07T21:55:44.350Z,60.78
2022-10-07T21:58:16.722Z,60.05
2022-10-07T22:00:47.446Z,59.42
2022-10-07T22:03:18.644Z,62.48
2022-10-07T22:05:49.089Z,65.92
2022-10-07T22:08:38.836Z,65.22
2022-10-07T22:11:10.762Z,63.59
2022-10-07T22:13:42.179Z,63.25
2022-10-07T22:16:14.961Z,62.79
2022-10-07T22:18:46.461Z,62.64
2022-10-07T22:21:19.124Z,62.61
2022-10-07T22:23:51.406Z,62.16
2022-10-07T22:26:22.738Z,61.86
2022-10-07T22:28:53.797Z,61.52
2022-10-07T22:31:25.848Z,61.79
2022-10-07T22:33:57.499Z,61.69
2022-10-07T22:36:28.313Z,61.45
2022-10-07T22:39:00.133Z,61.30
2022-10-07T22:41:31.018Z,61.11
2022-10-07T22:44:02.078Z,60.84
2022-10-07T22:46:32.587Z,60.32
2022-10-07T22:49:03.394Z,60.74
2022-10-07T22:51:33.810Z,60.68
2022-10-07T22:54:04.625Z,60.37
2022-10-07T22:56:35.148Z,60.07
2022-10-07T22:59:07.192Z,59.74
2022-10-07T23:01:37.514Z,59.88
2022-10-07T23:04:08.053Z,63.69
2022-10-07T23:06:38.708Z,65.43
2022-10-07T23:09:09.613Z,63.09
2022-10-07T23:11:40.071Z,61.71
2022-10-07T23:14:12.199Z,61.80
2022-10-07T23:16:44.417Z,61.12
2022-10-07T23:19:15.408Z,61.83
2022-10-07T23:21:47.266Z,62.21
2022-10-07T23:24:18.227Z,62.62
2022-10-07T23:26:48.781Z,62.66
2022-10-07T23:29:20.953Z,62.68
2022-10-07T23:31:51.632Z,62.33
2022-10-07T23:34:22.378Z,61.84
2022-10-07T23:36:55.356Z,61.36
2022-10-07T23:39:26.699Z,61.18
2022-10-07T23:41:57.131Z,61.62
2022-10-07T23:44:27.890Z,62.31
2022-10-07T23:46:58.502Z,62.24
2022-10-07T23:49:29.244Z,61.87
2022-10-07T23:52:00.270Z,61.60
2022-10-07T23:54:31.246Z,61.74
2022-10-07T23:57:01.764Z,61.47
2022-10-07T23:59:32.467Z,61.09
